Portada
METAR-TAF:

METAR-TAF

Aeroports :

Bintulu, Malàisia

latitud: 03-12N, longitud: 113-02E, altitud: 2 m

Observació

L'informe es va fer fa 1 hora i 10 minuts, a les 16:00 UTC
Vent 4 kt del Est/Sud-Est, variant entre Est/Nord-Est i Sud
Temperatura 26°C
Humitat 94%
Pressió 1011 hPa
Visibilitat 10 km o més
Núvols disperses a una alçada de 1600 ft
Núvols disperses a una alçada de 15000 ft
Cel ennuvolat a una alçada de 30000 ft

METAR: WBGB 311600Z 11004KT 060V170 9999 SCT016 SCT150 BKN300 26/25 Q1011

Hora: 01:10 (17:10 UTC)

Pronòstic

L'informe es va fer fa 6 hores i 10 minuts, a les 11:00 UTC
Pronòstic vàlid del 31 a les 12 UTC al 01 a les 12 UTC
Vent 5 kt del Est/Sud-Est
Visibilitat 10 km o més
Escasses núvols a una alçada de 1600 ft

TAF: WBGB 311100Z 3112/0112 11005KT 9999 FEW016

Observacions i pronòstics meteorològics de més de 4000 aeroports (METAR i TAF).

Les estacions disponibles són els punts grocs i vermells al mapa.

Posi el ratolí al punt desitjat per veure el nom de l'estació.

Feu clic per veure les observacions i els pronòstics meteorològics.

Per canviar el mapa: feu clic els botons verds amb una creu de color negre per apropar; al botó verd amb un guió per allunyar la imatge; o en les fletxes verdes per a mapes adjacents.


METAR-TAF: